Terminal Aerodrome Forecast
Issued by NWS

Home | Current Version | Previous Version | Text Only | Print | Product List | Glossary On
Versions: 1 2 3 4 5 6 7 8 9 10 11 12 13 14 15 16 17 18
000
FTUS45 KBOU 212340
TAFAPA
TAF
KAPA 212340Z 2200/2224 34007KT P6SM FEW080 SCT130 BKN200
     FM220200 33008KT P6SM SCT070 BKN100
     FM220300 30009KT P6SM VCSH SCT050 BKN070 OVC100
     FM220600 24007KT P6SM SCT070 BKN140
     FM221400 20006KT P6SM FEW140 SCT220
     FM221800 16008KT P6SM FEW220
     FM222300 13012KT P6SM SCT080 SCT130 BKN220=

USA.gov is the U.S. government's official web portal to all federal, state and local government web resources and services.